createdAt,value
2023-09-08T00:02:28.002Z,90.80
2023-09-08T00:05:26.024Z,90.50
2023-09-08T00:08:25.521Z,90.10
2023-09-08T00:11:23.478Z,90.70
2023-09-08T00:14:21.421Z,91.10
2023-09-08T00:17:19.420Z,90.30
2023-09-08T00:20:17.260Z,89.90
2023-09-08T00:23:15.160Z,90.00
2023-09-08T00:26:13.023Z,90.40
2023-09-08T00:29:11.024Z,90.70
2023-09-08T00:32:08.901Z,90.90
2023-09-08T00:35:09.738Z,90.90
2023-09-08T00:38:07.615Z,90.80
2023-09-08T00:41:07.462Z,90.80
2023-09-08T00:44:06.164Z,90.40
2023-09-08T00:47:04.257Z,90.60
2023-09-08T00:50:04.036Z,90.70
2023-09-08T00:53:02.091Z,90.70
2023-09-08T00:56:01.254Z,90.80
2023-09-08T00:58:59.587Z,90.40
2023-09-08T01:01:57.381Z,91.00
2023-09-08T01:04:55.448Z,91.30
2023-09-08T01:07:54.766Z,92.20
2023-09-08T01:10:53.088Z,91.70
2023-09-08T01:13:50.910Z,91.10
2023-09-08T01:16:48.931Z,91.60
2023-09-08T01:19:49.175Z,91.20
2023-09-08T01:23:22.350Z,91.40
2023-09-08T01:26:23.227Z,91.80
2023-09-08T01:29:24.950Z,91.60
2023-09-08T01:32:23.092Z,92.00
2023-09-08T01:35:21.474Z,91.90
2023-09-08T01:38:19.298Z,92.80
2023-09-08T01:41:17.272Z,91.40
2023-09-08T01:44:15.097Z,91.00
2023-09-08T01:47:13.073Z,90.80
2023-09-08T01:50:11.342Z,90.90
2023-09-08T01:53:09.295Z,90.60
2023-09-08T01:56:07.172Z,91.00
2023-09-08T01:59:06.511Z,90.50
2023-09-08T02:02:04.963Z,90.40
2023-09-08T02:05:03.113Z,90.10
2023-09-08T02:08:01.017Z,88.70
2023-09-08T02:10:58.930Z,89.10
2023-09-08T02:13:58.665Z,88.00
2023-09-08T02:16:57.504Z,88.50
2023-09-08T02:19:55.365Z,88.30
2023-09-08T02:22:57.197Z,89.20
2023-09-08T02:25:55.080Z,89.60
2023-09-08T02:28:53.039Z,88.70
2023-09-08T02:31:51.218Z,88.10
2023-09-08T02:34:50.375Z,87.50
2023-09-08T02:37:48.243Z,87.00
2023-09-08T02:40:46.211Z,87.20
2023-09-08T02:43:44.095Z,88.20
2023-09-08T02:46:43.037Z,86.30
2023-09-08T02:49:43.313Z,85.20
2023-09-08T02:52:41.515Z,86.70
2023-09-08T02:55:39.412Z,85.70
2023-09-08T02:58:38.171Z,86.20
2023-09-08T03:01:36.232Z,88.10
2023-09-08T03:04:34.225Z,86.50
2023-09-08T03:07:32.140Z,87.00
2023-09-08T03:10:30.321Z,86.30
2023-09-08T03:13:28.129Z,86.70
2023-09-08T03:16:26.104Z,85.40
2023-09-08T03:19:23.903Z,85.50
2023-09-08T03:22:21.764Z,85.00
2023-09-08T03:25:19.670Z,83.70
2023-09-08T03:28:17.682Z,83.90
2023-09-08T03:31:15.711Z,85.50
2023-09-08T03:34:14.798Z,82.60
2023-09-08T03:37:12.772Z,84.10
2023-09-08T03:40:11.384Z,82.80
2023-09-08T03:43:09.232Z,83.80
2023-09-08T03:46:07.218Z,83.90
2023-09-08T03:49:05.523Z,84.50
2023-09-08T03:52:03.585Z,78.50
2023-09-08T03:55:01.469Z,82.70
2023-09-08T03:57:59.479Z,81.80
2023-09-08T04:00:57.372Z,80.40
2023-09-08T04:03:55.782Z,78.70
2023-09-08T04:06:53.664Z,76.70
2023-09-08T04:09:51.583Z,79.20
2023-09-08T04:12:49.510Z,76.90
2023-09-08T04:15:47.518Z,80.30
2023-09-08T04:18:46.415Z,79.20
2023-09-08T04:21:44.382Z,80.10
2023-09-08T04:24:42.221Z,77.90
2023-09-08T04:27:40.332Z,79.80
2023-09-08T04:30:38.120Z,80.40
2023-09-08T04:33:36.503Z,80.60
2023-09-08T04:36:34.616Z,80.10
2023-09-08T04:39:32.625Z,80.50
2023-09-08T04:42:31.165Z,80.20
2023-09-08T04:45:29.231Z,77.50
2023-09-08T04:48:29.244Z,79.20
2023-09-08T04:51:28.673Z,78.50
2023-09-08T04:54:28.832Z,78.60
2023-09-08T04:57:26.799Z,78.40
2023-09-08T05:00:24.934Z,79.00
2023-09-08T05:03:23.035Z,79.50
2023-09-08T05:06:20.814Z,79.30
2023-09-08T05:09:18.834Z,78.00
2023-09-08T05:12:16.775Z,78.40
2023-09-08T05:15:17.236Z,77.80
2023-09-08T05:18:15.191Z,76.80
2023-09-08T05:21:13.204Z,76.00
2023-09-08T05:24:11.323Z,77.60
2023-09-08T05:27:09.319Z,75.90
2023-09-08T05:30:08.303Z,77.00
2023-09-08T05:33:06.407Z,77.00
2023-09-08T05:36:04.350Z,75.30
2023-09-08T05:39:02.340Z,75.50
2023-09-08T05:42:00.261Z,76.80
2023-09-08T05:44:58.205Z,75.80
2023-09-08T05:47:56.208Z,75.40
2023-09-08T05:50:54.331Z,75.00
2023-09-08T05:53:52.248Z,75.50
2023-09-08T05:56:50.185Z,76.60
2023-09-08T05:59:48.009Z,77.60
2023-09-08T06:02:46.041Z,78.10
2023-09-08T06:05:44.109Z,78.40
2023-09-08T06:08:42.060Z,78.80
2023-09-08T06:11:39.990Z,79.10
2023-09-08T06:14:38.135Z,79.90
2023-09-08T06:17:36.041Z,79.30
2023-09-08T06:20:34.155Z,80.60
2023-09-08T06:23:32.036Z,79.60
2023-09-08T06:26:30.043Z,80.50
2023-09-08T06:29:27.836Z,79.50
2023-09-08T06:32:25.827Z,79.10
2023-09-08T06:35:23.749Z,79.00
2023-09-08T06:38:21.848Z,80.30
2023-09-08T06:41:19.666Z,80.40
2023-09-08T06:44:17.739Z,80.80
2023-09-08T06:47:15.564Z,80.30
2023-09-08T06:50:13.886Z,79.60
2023-09-08T06:53:12.324Z,79.50
2023-09-08T06:56:10.374Z,79.30
2023-09-08T06:59:08.217Z,79.10
2023-09-08T07:02:06.333Z,79.30
2023-09-08T07:05:09.446Z,79.40
2023-09-08T07:08:08.964Z,78.20
2023-09-08T07:11:06.874Z,78.60
2023-09-08T07:14:04.880Z,78.00
2023-09-08T07:17:02.874Z,78.80
2023-09-08T07:20:00.935Z,77.50
2023-09-08T07:22:58.764Z,77.90
2023-09-08T07:25:56.984Z,77.30
2023-09-08T07:28:54.795Z,77.30
2023-09-08T07:31:53.010Z,76.50
2023-09-08T07:34:57.017Z,76.50
2023-09-08T07:37:55.409Z,76.30
2023-09-08T07:40:53.228Z,76.50
2023-09-08T07:43:52.675Z,76.60
2023-09-08T07:46:52.859Z,76.30
2023-09-08T07:49:50.763Z,76.00
2023-09-08T07:52:50.057Z,76.30
2023-09-08T07:55:48.014Z,75.40
2023-09-08T07:58:45.902Z,75.40
2023-09-08T08:01:44.031Z,74.30
2023-09-08T08:04:41.906Z,73.60
2023-09-08T08:07:41.918Z,74.00
2023-09-08T08:10:39.773Z,74.20
2023-09-08T08:13:37.696Z,74.80
2023-09-08T08:16:36.372Z,75.20
2023-09-08T08:19:34.395Z,74.80
2023-09-08T08:22:32.374Z,75.10
2023-09-08T08:25:30.692Z,75.60
2023-09-08T08:28:28.586Z,74.80
2023-09-08T08:31:26.491Z,75.50
2023-09-08T08:34:24.291Z,75.70
2023-09-08T08:37:22.395Z,75.40
2023-09-08T08:40:20.301Z,76.10
2023-09-08T08:43:18.391Z,76.20
2023-09-08T08:46:16.618Z,77.80
2023-09-08T08:49:16.805Z,79.50
2023-09-08T08:52:16.493Z,79.60
2023-09-08T08:55:17.285Z,80.60
2023-09-08T08:58:16.309Z,80.20
2023-09-08T09:01:14.549Z,79.90
2023-09-08T09:04:13.776Z,81.20
2023-09-08T09:07:12.841Z,80.80
2023-09-08T09:10:11.392Z,80.60
2023-09-08T09:13:09.308Z,80.70
2023-09-08T09:16:11.898Z,80.00
2023-09-08T09:19:10.113Z,80.90
2023-09-08T09:22:07.875Z,80.80
2023-09-08T09:25:09.258Z,80.20
2023-09-08T09:28:07.641Z,80.60
2023-09-08T09:31:05.786Z,80.60
2023-09-08T09:34:06.131Z,80.00
2023-09-08T09:37:07.052Z,80.00
2023-09-08T09:40:09.087Z,81.40
2023-09-08T09:43:08.859Z,80.70
2023-09-08T09:46:10.758Z,80.50
2023-09-08T09:49:11.812Z,81.10
2023-09-08T09:52:09.660Z,80.10
2023-09-08T09:55:08.932Z,80.20
2023-09-08T09:58:07.483Z,79.40
2023-09-08T10:01:07.600Z,78.30
2023-09-08T10:04:06.643Z,79.30
2023-09-08T10:07:04.866Z,78.60
2023-09-08T10:10:02.633Z,78.40
2023-09-08T10:13:06.344Z,76.70
2023-09-08T10:16:06.129Z,78.10
2023-09-08T10:19:07.947Z,78.70
2023-09-08T10:22:07.925Z,77.20
2023-09-08T10:25:08.185Z,79.30
2023-09-08T10:28:06.886Z,78.70
2023-09-08T10:31:06.005Z,77.60
2023-09-08T10:34:04.675Z,78.60
2023-09-08T10:37:02.766Z,78.70
2023-09-08T10:40:24.189Z,78.20
2023-09-08T10:43:22.880Z,77.50
2023-09-08T10:46:25.327Z,77.20
2023-09-08T10:49:23.128Z,77.80
2023-09-08T10:52:23.978Z,77.30
2023-09-08T10:55:39.365Z,77.80
2023-09-08T10:58:42.562Z,76.90
2023-09-08T11:01:40.618Z,76.20
2023-09-08T11:04:39.045Z,77.70
2023-09-08T11:07:39.487Z,77.20
2023-09-08T11:10:39.257Z,75.90
2023-09-08T11:13:37.294Z,76.20
2023-09-08T11:16:38.094Z,77.60
2023-09-08T11:19:51.739Z,77.50
2023-09-08T11:22:51.297Z,76.10
2023-09-08T11:25:50.759Z,76.00
2023-09-08T11:28:50.852Z,78.30
2023-09-08T11:31:54.449Z,77.60
2023-09-08T11:34:52.383Z,77.30
2023-09-08T11:37:51.305Z,79.50
2023-09-08T11:40:49.219Z,81.40
2023-09-08T11:43:47.369Z,81.20
2023-09-08T11:46:45.342Z,81.40
2023-09-08T11:49:46.150Z,81.30
2023-09-08T11:52:48.818Z,81.30
2023-09-08T11:55:47.394Z,81.70
2023-09-08T11:58:46.228Z,81.80
2023-09-08T12:01:44.314Z,82.80
2023-09-08T12:04:43.698Z,83.00
2023-09-08T12:07:41.712Z,82.60
2023-09-08T12:10:40.926Z,82.30
2023-09-08T12:13:38.985Z,82.30
2023-09-08T12:16:37.107Z,82.20
2023-09-08T12:19:35.268Z,83.40
2023-09-08T12:22:34.993Z,81.70
2023-09-08T12:25:33.548Z,83.00
2023-09-08T12:28:33.487Z,83.20
2023-09-08T12:31:31.820Z,82.80
2023-09-08T12:34:32.335Z,83.70
2023-09-08T12:37:30.721Z,84.90
2023-09-08T12:40:30.124Z,90.20
2023-09-08T12:43:28.581Z,90.80
2023-09-08T12:46:27.562Z,90.80
2023-09-08T12:49:25.518Z,88.40
2023-09-08T12:52:23.479Z,90.20
2023-09-08T12:55:22.187Z,89.80
2023-09-08T12:58:23.176Z,89.50
2023-09-08T13:01:24.219Z,87.00
2023-09-08T13:04:23.668Z,89.90
2023-09-08T13:07:21.909Z,86.60
2023-09-08T13:10:19.835Z,86.30
2023-09-08T13:13:17.808Z,90.30
2023-09-08T13:16:15.760Z,90.10
2023-09-08T13:19:14.815Z,85.70
2023-09-08T13:22:13.065Z,90.20
2023-09-08T13:25:11.101Z,86.80
2023-09-08T13:28:09.268Z,86.30
2023-09-08T13:31:07.339Z,83.60
2023-09-08T13:34:05.300Z,87.90
2023-09-08T13:37:04.366Z,85.00
2023-09-08T13:40:05.898Z,90.20
2023-09-08T13:43:04.253Z,84.50
2023-09-08T13:46:02.221Z,85.10
2023-09-08T13:49:01.515Z,89.00
2023-09-08T13:52:01.708Z,80.70
2023-09-08T13:55:24.507Z,88.30
2023-09-08T13:58:20.011Z,79.80
2023-09-08T14:01:20.041Z,82.40
2023-09-08T14:04:19.144Z,83.80
2023-09-08T14:10:28.443Z,86.10
2023-09-08T14:13:28.472Z,87.20
2023-09-08T14:16:29.102Z,87.90
2023-09-08T14:19:27.094Z,86.00
2023-09-08T14:22:25.136Z,87.50
2023-09-08T14:25:24.553Z,82.80
2023-09-08T14:28:22.657Z,86.80
2023-09-08T14:31:20.656Z,85.70
2023-09-08T14:34:18.632Z,88.20
2023-09-08T14:37:17.070Z,88.80
2023-09-08T14:40:14.920Z,82.80
2023-09-08T14:43:12.855Z,88.10
2023-09-08T14:46:10.730Z,83.40
2023-09-08T14:49:08.676Z,83.00
2023-09-08T14:52:07.124Z,78.80
2023-09-08T14:55:05.215Z,90.60
2023-09-08T14:58:03.264Z,85.70
2023-09-08T15:01:08.985Z,84.20
2023-09-08T15:04:07.375Z,82.70
2023-09-08T15:07:06.505Z,85.60
2023-09-08T15:10:05.984Z,85.30
2023-09-08T15:13:05.076Z,84.60
2023-09-08T15:16:03.385Z,78.90
2023-09-08T15:19:04.542Z,78.60
2023-09-08T15:22:02.332Z,89.30
2023-09-08T15:25:00.311Z,89.10
2023-09-08T15:28:01.025Z,89.50
2023-09-08T15:30:58.961Z,78.30
2023-09-08T15:33:56.997Z,77.50
2023-09-08T15:36:55.021Z,78.80
2023-09-08T15:39:53.283Z,78.50
2023-09-08T15:42:53.846Z,79.10
2023-09-08T15:45:51.643Z,91.70
2023-09-08T15:48:50.067Z,89.20
2023-09-08T15:51:51.594Z,82.40
2023-09-08T15:54:52.331Z,89.00
2023-09-08T15:57:50.238Z,81.40
2023-09-08T16:00:48.387Z,89.00
2023-09-08T16:03:47.164Z,88.50
2023-09-08T16:06:45.217Z,85.90
2023-09-08T16:09:43.628Z,91.70
2023-09-08T16:12:41.592Z,92.40
2023-09-08T16:15:40.369Z,86.40
2023-09-08T16:18:38.464Z,91.30
2023-09-08T16:21:37.635Z,82.40
2023-09-08T16:24:35.685Z,87.60
2023-09-08T16:27:35.604Z,91.90
2023-09-08T16:30:33.654Z,94.50
2023-09-08T16:33:31.529Z,82.30
2023-09-08T16:36:30.642Z,80.40
2023-09-08T16:39:28.559Z,85.30
2023-09-08T16:42:26.711Z,80.80
2023-09-08T16:45:24.597Z,79.40
2023-09-08T16:48:22.771Z,78.50
2023-09-08T16:51:20.603Z,78.10
2023-09-08T16:54:18.511Z,75.70
2023-09-08T16:57:16.885Z,75.40
2023-09-08T17:00:15.135Z,79.30
2023-09-08T17:03:13.231Z,78.70
2023-09-08T17:06:11.408Z,79.90
2023-09-08T17:09:10.313Z,81.80
2023-09-08T17:12:10.371Z,91.70
2023-09-08T17:15:09.455Z,77.60
2023-09-08T17:18:07.918Z,81.90
2023-09-08T17:21:08.987Z,77.70
2023-09-08T17:24:07.495Z,79.60
2023-09-08T17:27:05.762Z,80.60
2023-09-08T17:30:03.725Z,80.70
2023-09-08T17:33:01.649Z,80.00
2023-09-08T17:35:59.641Z,81.10
2023-09-08T17:38:57.572Z,80.40
2023-09-08T17:41:55.546Z,79.40
2023-09-08T17:44:53.277Z,80.10
2023-09-08T17:47:51.250Z,81.20
2023-09-08T17:50:49.304Z,80.60
2023-09-08T17:53:47.596Z,82.10
2023-09-08T17:56:45.368Z,81.20
2023-09-08T17:59:43.651Z,86.80
2023-09-08T18:02:41.617Z,81.00
2023-09-08T18:05:39.873Z,82.80
2023-09-08T18:08:37.815Z,80.90
2023-09-08T18:11:35.813Z,80.90
2023-09-08T18:14:33.703Z,81.20
2023-09-08T18:17:33.095Z,89.60
2023-09-08T18:20:30.971Z,91.00
2023-09-08T18:23:28.951Z,92.10
2023-09-08T18:26:26.844Z,90.80
2023-09-08T18:29:24.853Z,91.60
2023-09-08T18:32:22.664Z,91.10
2023-09-08T18:35:22.197Z,82.60
2023-09-08T18:38:20.055Z,91.00
2023-09-08T18:41:19.094Z,88.60
2023-09-08T18:44:16.912Z,83.10
2023-09-08T18:47:14.931Z,85.90
2023-09-08T18:50:13.899Z,87.70
2023-09-08T18:53:12.225Z,83.60
2023-09-08T18:56:10.204Z,83.90
2023-09-08T18:59:08.128Z,84.20
2023-09-08T19:02:06.224Z,90.70
2023-09-08T19:05:04.634Z,87.10
2023-09-08T19:08:02.674Z,91.40
2023-09-08T19:11:01.185Z,87.70
2023-09-08T19:13:58.937Z,87.90
2023-09-08T19:16:59.265Z,86.90
2023-09-08T19:19:57.129Z,87.50
2023-09-08T19:22:55.473Z,90.30
2023-09-08T19:25:53.341Z,84.40
2023-09-08T19:28:51.675Z,87.10
2023-09-08T19:31:49.437Z,84.30
2023-09-08T19:34:47.376Z,86.70
2023-09-08T19:37:45.193Z,84.70
2023-09-08T19:40:43.151Z,90.10
2023-09-08T19:43:41.423Z,82.90
2023-09-08T19:46:39.389Z,88.40
2023-09-08T19:49:40.228Z,79.70
2023-09-08T19:52:41.111Z,79.80
2023-09-08T19:55:41.437Z,89.40
2023-09-08T19:58:39.449Z,86.60
2023-09-08T20:01:37.466Z,90.10
2023-09-08T20:04:35.511Z,80.60
2023-09-08T20:07:33.373Z,87.30
2023-09-08T20:10:31.339Z,89.40
2023-09-08T20:13:29.273Z,87.70
2023-09-08T20:16:27.305Z,84.20
2023-09-08T20:19:25.141Z,87.80
2023-09-08T20:22:23.266Z,81.90
2023-09-08T20:25:22.091Z,87.00
2023-09-08T20:28:21.471Z,89.70
2023-09-08T20:31:19.740Z,87.70
2023-09-08T20:34:18.201Z,83.00
2023-09-08T20:37:16.313Z,81.90
2023-09-08T20:40:14.456Z,84.60
2023-09-08T20:43:12.222Z,85.00
2023-09-08T20:46:10.386Z,86.50
2023-09-08T20:49:09.988Z,84.40
2023-09-08T20:52:13.581Z,85.30
2023-09-08T20:55:12.161Z,87.70
2023-09-08T20:58:10.076Z,83.30
2023-09-08T21:01:08.658Z,86.90
2023-09-08T21:04:07.336Z,88.20
2023-09-08T21:07:05.351Z,87.40
2023-09-08T21:10:03.882Z,86.00
2023-09-08T21:13:01.647Z,88.50
2023-09-08T21:16:00.173Z,85.80
2023-09-08T21:18:58.023Z,84.50
2023-09-08T21:21:56.118Z,88.10
2023-09-08T21:24:56.942Z,84.60
2023-09-08T21:27:54.867Z,86.30
2023-09-08T21:30:52.720Z,87.60
2023-09-08T21:33:51.555Z,87.30
2023-09-08T21:36:49.736Z,81.80
2023-09-08T21:39:47.721Z,85.70
2023-09-08T21:42:45.561Z,80.10
2023-09-08T21:45:43.489Z,80.80
2023-09-08T21:48:41.452Z,83.10
2023-09-08T21:51:40.115Z,81.50
2023-09-08T21:54:38.147Z,82.90
2023-09-08T21:57:36.151Z,84.50
2023-09-08T22:00:34.670Z,82.50
2023-09-08T22:03:32.839Z,82.60
2023-09-08T22:06:30.812Z,83.40
2023-09-08T22:09:28.821Z,82.90
2023-09-08T22:12:26.602Z,84.60
2023-09-08T22:15:24.631Z,83.30
2023-09-08T22:18:22.443Z,83.70
2023-09-08T22:21:20.329Z,83.40
2023-09-08T22:24:18.291Z,85.50
2023-09-08T22:27:16.298Z,82.80
2023-09-08T22:30:14.544Z,84.30
2023-09-08T22:33:12.537Z,83.40
2023-09-08T22:36:10.707Z,83.00
2023-09-08T22:39:10.296Z,88.00
2023-09-08T22:42:08.277Z,83.50
2023-09-08T22:45:06.925Z,85.90
2023-09-08T22:48:05.285Z,83.60
2023-09-08T22:51:04.919Z,85.10
2023-09-08T22:54:04.223Z,84.00
2023-09-08T22:57:02.228Z,83.40
2023-09-08T23:00:00.674Z,86.60
2023-09-08T23:02:58.817Z,87.20
2023-09-08T23:05:57.333Z,84.80
2023-09-08T23:08:55.371Z,85.30
2023-09-08T23:11:54.046Z,84.70
2023-09-08T23:14:54.841Z,83.10
2023-09-08T23:17:53.110Z,83.80
2023-09-08T23:20:51.247Z,85.40
2023-09-08T23:23:49.068Z,84.30
2023-09-08T23:26:47.239Z,83.80
2023-09-08T23:29:45.067Z,83.60
2023-09-08T23:32:45.387Z,84.90
2023-09-08T23:35:43.920Z,84.50
2023-09-08T23:38:41.945Z,86.30
2023-09-08T23:41:39.776Z,88.90
2023-09-08T23:44:37.790Z,84.90
2023-09-08T23:47:35.924Z,86.10
2023-09-08T23:50:55.180Z,86.90
2023-09-08T23:53:53.988Z,85.90
2023-09-08T23:56:52.001Z,84.80
2023-09-08T23:59:50.416Z,86.90
